createdAt,value
2019-06-26T00:01:14.142Z,96969.27
2019-06-26T00:06:10.891Z,96958.63
2019-06-26T00:11:07.571Z,96964.22
2019-06-26T00:16:04.894Z,96966.17
2019-06-26T00:21:01.564Z,96964.95
2019-06-26T00:25:58.296Z,96961.19
2019-06-26T00:30:55.098Z,96963.43
2019-06-26T00:35:51.984Z,96953.88
2019-06-26T00:40:48.676Z,96957.84
2019-06-26T00:45:45.435Z,96956.55
2019-06-26T00:50:42.205Z,96952.98
2019-06-26T00:55:38.973Z,96956.14
2019-06-26T01:00:48.330Z,96949.97
2019-06-26T01:05:45.143Z,96957.50
2019-06-26T01:10:41.866Z,96954.44
2019-06-26T01:15:38.544Z,96951.13
2019-06-26T01:20:35.390Z,96943.48
2019-06-26T01:25:32.094Z,96946.45
2019-06-26T01:30:29.347Z,96948.17
2019-06-26T01:35:26.131Z,96950.16
2019-06-26T01:40:23.008Z,96940.11
2019-06-26T01:45:19.729Z,96942.83
2019-06-26T01:50:16.689Z,96941.72
2019-06-26T01:55:13.377Z,96940.27
2019-06-26T02:00:10.634Z,96942.53
2019-06-26T02:05:07.806Z,96937.10
2019-06-26T02:10:05.255Z,96932.50
2019-06-26T02:15:03.545Z,96938.92
2019-06-26T02:20:00.337Z,96938.02
2019-06-26T02:24:57.133Z,96939.13
2019-06-26T02:29:53.910Z,96943.53
2019-06-26T02:34:50.654Z,96933.31
2019-06-26T02:39:47.400Z,96936.52
2019-06-26T02:44:53.034Z,96935.23
2019-06-26T02:49:42.764Z,96933.71
2019-06-26T02:54:39.519Z,96938.92
2019-06-26T02:59:36.404Z,96938.92
2019-06-26T03:04:33.151Z,96932.44
2019-06-26T03:09:29.901Z,96929.86
2019-06-26T03:14:26.993Z,96926.39
2019-06-26T03:19:24.127Z,96926.98
2019-06-26T03:24:21.221Z,96924.28
2019-06-26T03:29:18.913Z,96929.05
2019-06-26T03:34:15.883Z,96923.23
2019-06-26T03:39:12.959Z,96916.89
2019-06-26T03:44:09.958Z,96918.02
2019-06-26T03:49:07.103Z,96915.34
2019-06-26T03:54:04.158Z,96921.22
2019-06-26T03:59:01.206Z,96919.03
2019-06-26T04:03:58.176Z,96916.77
2019-06-26T04:08:55.276Z,96911.38
2019-06-26T04:13:52.306Z,96921.50
2019-06-26T04:18:49.574Z,96920.21
2019-06-26T04:23:46.687Z,96918.85
2019-06-26T04:28:43.384Z,96916.79
2019-06-26T04:33:41.054Z,96915.53
2019-06-26T04:38:37.890Z,96917.74
2019-06-26T04:43:34.676Z,96917.08
2019-06-26T04:48:31.485Z,96913.22
2019-06-26T04:53:28.201Z,96911.94
2019-06-26T04:58:25.027Z,96918.63
2019-06-26T05:03:21.789Z,96913.59
2019-06-26T05:08:18.900Z,96910.52
2019-06-26T05:13:15.632Z,96919.19
2019-06-26T05:18:15.157Z,96921.19
2019-06-26T05:23:12.221Z,96915.39
2019-06-26T05:28:08.956Z,96919.30
2019-06-26T05:33:05.734Z,96918.45
2019-06-26T05:38:02.708Z,96914.39
2019-06-26T05:42:59.704Z,96912.53
2019-06-26T05:47:56.811Z,96908.67
2019-06-26T05:52:53.922Z,96913.70
2019-06-26T05:57:50.998Z,96911.50
2019-06-26T06:02:48.161Z,96909.20
2019-06-26T06:07:45.260Z,96904.77
2019-06-26T06:12:42.287Z,96909.44
2019-06-26T06:17:40.382Z,96902.66
2019-06-26T06:22:37.510Z,96909.88
2019-06-26T06:27:35.126Z,96906.36
2019-06-26T06:32:32.259Z,96911.66
2019-06-26T06:37:29.335Z,96910.62
2019-06-26T06:42:26.820Z,96911.27
2019-06-26T06:47:24.010Z,96905.64
2019-06-26T06:52:21.038Z,96908.06
2019-06-26T06:57:18.118Z,96901.81
2019-06-26T07:02:16.693Z,96905.31
2019-06-26T07:07:13.544Z,96898.77
2019-06-26T07:12:10.349Z,96896.90
2019-06-26T07:17:20.000Z,96904.39
2019-06-26T07:22:07.450Z,96898.61
2019-06-26T07:27:04.729Z,96895.52
2019-06-26T07:32:01.498Z,96893.89
2019-06-26T07:36:58.366Z,96897.44
2019-06-26T07:41:55.477Z,96893.56
2019-06-26T07:46:53.256Z,96893.06
2019-06-26T07:51:49.939Z,96895.58
2019-06-26T07:56:46.692Z,96888.52
2019-06-26T08:01:43.475Z,96893.06
2019-06-26T08:06:40.360Z,96888.04
2019-06-26T08:11:37.191Z,96890.63
2019-06-26T08:16:34.558Z,96892.31
2019-06-26T08:21:31.492Z,96893.81
2019-06-26T08:26:28.464Z,96894.57
2019-06-26T08:31:25.281Z,96898.75
2019-06-26T08:36:22.092Z,96893.88
2019-06-26T08:41:18.856Z,96892.98
2019-06-26T08:46:17.574Z,96892.83
2019-06-26T08:51:14.368Z,96893.08
2019-06-26T08:56:11.095Z,96898.84
2019-06-26T09:01:08.194Z,96884.88
2019-06-26T09:06:05.348Z,96890.61
2019-06-26T09:11:04.765Z,96893.70
2019-06-26T09:16:01.558Z,96888.95
2019-06-26T09:20:58.406Z,96884.03
2019-06-26T09:25:55.445Z,96878.33
2019-06-26T09:30:52.162Z,96879.02
2019-06-26T09:35:48.871Z,96867.84
2019-06-26T09:40:45.713Z,96868.19
2019-06-26T09:45:42.864Z,96865.05
2019-06-26T09:50:42.362Z,96860.75
2019-06-26T09:55:39.614Z,96854.98
2019-06-26T10:00:39.386Z,96851.30
2019-06-26T10:05:36.133Z,96841.91
2019-06-26T10:10:32.892Z,96845.74
2019-06-26T10:15:29.969Z,96846.89
2019-06-26T10:20:26.722Z,96837.91
2019-06-26T10:25:23.860Z,96838.45
2019-06-26T10:30:20.837Z,96825.42
2019-06-26T10:35:18.463Z,96831.00
2019-06-26T10:40:16.607Z,96819.38
2019-06-26T10:45:15.585Z,96825.73
2019-06-26T10:50:12.588Z,96819.84
2019-06-26T10:55:09.301Z,96821.48
2019-06-26T11:00:07.777Z,96807.39
2019-06-26T11:05:06.905Z,96807.78
2019-06-26T11:10:05.838Z,96799.95
2019-06-26T11:15:07.371Z,96799.61
2019-06-26T11:20:07.232Z,96795.30
2019-06-26T11:25:05.834Z,96786.62
2019-06-26T11:30:10.246Z,96782.66
2019-06-26T11:35:07.318Z,96775.68
2019-06-26T11:40:06.469Z,96783.40
2019-06-26T11:45:05.564Z,96777.11
2019-06-26T11:50:07.970Z,96765.90
2019-06-26T11:55:06.163Z,96765.55
2019-06-26T12:00:09.569Z,96753.75
2019-06-26T12:05:06.633Z,96753.14
2019-06-26T12:10:09.643Z,96746.82
2019-06-26T12:15:08.511Z,96741.72
2019-06-26T12:20:17.658Z,96747.59
2019-06-26T12:25:08.762Z,96735.70
2019-06-26T12:30:07.207Z,96736.11
2019-06-26T12:35:07.469Z,96731.45
2019-06-26T12:40:06.940Z,96730.10
2019-06-26T12:45:10.312Z,96724.76
2019-06-26T12:50:10.581Z,96724.63
2019-06-26T12:55:07.906Z,96721.72
2019-06-26T13:00:11.260Z,96715.22
2019-06-26T13:05:08.645Z,96710.93
2019-06-26T13:10:07.931Z,96705.10
2019-06-26T13:15:08.081Z,96700.50
2019-06-26T13:20:10.695Z,96691.77
2019-06-26T13:25:09.550Z,96684.66
2019-06-26T13:30:07.176Z,96683.49
2019-06-26T13:35:05.917Z,96673.61
2019-06-26T13:40:05.341Z,96670.66
2019-06-26T13:45:05.448Z,96672.28
2019-06-26T13:50:07.626Z,96667.53
2019-06-26T13:55:05.675Z,96659.64
2019-06-26T14:00:05.842Z,96654.97
2019-06-26T14:05:08.024Z,96646.94
2019-06-26T14:10:05.842Z,96644.16
2019-06-26T14:15:05.347Z,96632.75
2019-06-26T14:20:06.076Z,96633.95
2019-06-26T14:25:08.464Z,96628.10
2019-06-26T14:30:06.490Z,96618.91
2019-06-26T14:35:06.436Z,96615.43
2019-06-26T14:40:07.086Z,96600.78
2019-06-26T14:45:07.174Z,96592.27
2019-06-26T14:50:05.281Z,96585.73
2019-06-26T14:55:04.215Z,96575.62
2019-06-26T15:00:01.290Z,96570.84
2019-06-26T15:04:58.403Z,96574.05
2019-06-26T15:09:56.874Z,96569.26
2019-06-26T15:14:54.019Z,96558.53
2019-06-26T15:19:52.132Z,96555.86
2019-06-26T15:24:49.370Z,96553.18
2019-06-26T15:29:46.411Z,96543.91
2019-06-26T15:34:43.691Z,96542.30
2019-06-26T15:39:40.694Z,96539.38
2019-06-26T15:44:37.861Z,96539.91
2019-06-26T15:49:34.855Z,96529.34
2019-06-26T15:54:32.222Z,96529.33
2019-06-26T15:59:31.160Z,96529.34
2019-06-26T16:04:28.765Z,96531.39
2019-06-26T16:09:25.886Z,96524.19
2019-06-26T16:14:23.019Z,96518.37
2019-06-26T16:19:21.923Z,96513.09
2019-06-26T16:24:19.168Z,96509.78
2019-06-26T16:29:16.216Z,96504.22
2019-06-26T16:34:13.211Z,96505.72
2019-06-26T16:39:10.159Z,96509.83
2019-06-26T16:44:07.238Z,96507.66
2019-06-26T16:49:04.183Z,96507.51
2019-06-26T16:54:01.517Z,96503.55
2019-06-26T16:58:58.548Z,96499.86
2019-06-26T17:03:55.673Z,96491.98
2019-06-26T17:08:52.725Z,96487.17
2019-06-26T17:13:49.858Z,96480.96
2019-06-26T17:18:47.691Z,96475.48
2019-06-26T17:23:44.699Z,96468.97
2019-06-26T17:28:41.719Z,96467.81
2019-06-26T17:33:38.829Z,96461.23
2019-06-26T17:38:35.937Z,96462.41
2019-06-26T17:43:33.823Z,96458.06
2019-06-26T17:48:31.022Z,96446.19
2019-06-26T17:53:28.244Z,96445.66
2019-06-26T17:58:25.761Z,96447.97
2019-06-26T18:03:22.751Z,96442.95
2019-06-26T18:08:21.621Z,96436.15
2019-06-26T18:13:18.671Z,96438.08
2019-06-26T18:18:16.767Z,96435.84
2019-06-26T18:23:15.768Z,96435.16
2019-06-26T18:28:12.563Z,96436.40
2019-06-26T18:33:10.611Z,96440.81
2019-06-26T18:38:07.559Z,96427.87
2019-06-26T18:43:04.652Z,96427.05
2019-06-26T18:48:01.666Z,96436.27
2019-06-26T18:52:59.969Z,96431.46
2019-06-26T18:57:58.918Z,96429.20
2019-06-26T19:02:55.976Z,96428.07
2019-06-26T19:07:54.948Z,96432.79
2019-06-26T19:12:52.147Z,96434.00
2019-06-26T19:17:49.237Z,96427.62
2019-06-26T19:22:47.566Z,96429.33
2019-06-26T19:27:44.975Z,96429.98
2019-06-26T19:32:42.160Z,96429.30
2019-06-26T19:37:39.328Z,96423.36
2019-06-26T19:42:36.503Z,96423.14
2019-06-26T19:47:33.621Z,96422.59
2019-06-26T19:52:32.153Z,96415.16
2019-06-26T19:57:29.476Z,96417.42
2019-06-26T20:02:28.397Z,96416.98
2019-06-26T20:07:25.596Z,96416.16
2019-06-26T20:12:23.022Z,96415.64
2019-06-26T20:17:20.142Z,96413.17
2019-06-26T20:22:17.221Z,96408.30
2019-06-26T20:27:16.006Z,96406.14
2019-06-26T20:32:13.995Z,96404.77
2019-06-26T20:37:10.940Z,96407.81
2019-06-26T20:42:07.921Z,96400.91
2019-06-26T20:47:04.876Z,96402.54
2019-06-26T20:52:02.819Z,96394.91
2019-06-26T20:56:59.826Z,96398.49
2019-06-26T21:01:56.878Z,96394.31
2019-06-26T21:06:56.711Z,96384.50
2019-06-26T21:11:54.122Z,96388.87
2019-06-26T21:16:51.118Z,96377.44
2019-06-26T21:21:48.131Z,96378.25
2019-06-26T21:26:45.192Z,96385.39
2019-06-26T21:31:42.347Z,96383.80
2019-06-26T21:36:39.763Z,96385.19
2019-06-26T21:41:36.810Z,96374.20
2019-06-26T21:46:33.889Z,96365.97
2019-06-26T21:51:31.340Z,96375.02
2019-06-26T21:56:28.448Z,96372.20
2019-06-26T22:01:25.675Z,96352.70
2019-06-26T22:06:22.753Z,96345.87
2019-06-26T22:11:20.140Z,96343.43
2019-06-26T22:16:17.189Z,96344.02
2019-06-26T22:21:16.028Z,96352.52
2019-06-26T22:26:14.269Z,96349.78
2019-06-26T22:31:13.121Z,96347.05
2019-06-26T22:36:10.062Z,96345.61
2019-06-26T22:41:08.086Z,96337.47
2019-06-26T22:46:05.097Z,96334.63
2019-06-26T22:51:02.697Z,96333.48
2019-06-26T22:56:07.473Z,96337.12
2019-06-26T23:01:00.398Z,96340.45
2019-06-26T23:05:57.434Z,96325.16
2019-06-26T23:10:56.336Z,96322.44
2019-06-26T23:15:53.358Z,96319.45
2019-06-26T23:20:50.447Z,96313.72
2019-06-26T23:25:49.566Z,96311.81
2019-06-26T23:30:46.670Z,96306.90
2019-06-26T23:35:43.750Z,96307.97
2019-06-26T23:40:40.804Z,96306.60
2019-06-26T23:45:39.323Z,96303.34
2019-06-26T23:50:36.524Z,96296.48
2019-06-26T23:55:33.652Z,96297.33
